sensor_id;sensor_type;location;lat;lon;timestamp;temperature;humidity
74153;DHT22;62505;46.070;14.492;2023-02-28T00:01:34;21.60;53.60
74153;DHT22;62505;46.070;14.492;2023-02-28T00:04:01;21.60;53.70
74153;DHT22;62505;46.070;14.492;2023-02-28T00:06:28;21.60;53.60
74153;DHT22;62505;46.070;14.492;2023-02-28T00:08:55;21.60;53.60
74153;DHT22;62505;46.070;14.492;2023-02-28T00:11:22;21.60;53.60
74153;DHT22;62505;46.070;14.492;2023-02-28T00:13:51;21.60;53.70
74153;DHT22;62505;46.070;14.492;2023-02-28T00:16:20;21.60;53.70
74153;DHT22;62505;46.070;14.492;2023-02-28T00:18:47;21.60;53.70
74153;DHT22;62505;46.070;14.492;2023-02-28T00:21:15;21.60;53.70
74153;DHT22;62505;46.070;14.492;2023-02-28T00:23:42;21.60;53.70
74153;DHT22;62505;46.070;14.492;2023-02-28T00:26:09;21.60;53.70
74153;DHT22;62505;46.070;14.492;2023-02-28T00:28:36;21.60;53.70
74153;DHT22;62505;46.070;14.492;2023-02-28T00:31:04;21.60;54.30
74153;DHT22;62505;46.070;14.492;2023-02-28T00:33:31;21.60;53.70
74153;DHT22;62505;46.070;14.492;2023-02-28T00:36:07;21.60;53.70
74153;DHT22;62505;46.070;14.492;2023-02-28T00:38:34;21.60;53.70
74153;DHT22;62505;46.070;14.492;2023-02-28T00:41:01;21.50;53.70
74153;DHT22;62505;46.070;14.492;2023-02-28T00:43:31;21.60;53.70
74153;DHT22;62505;46.070;14.492;2023-02-28T00:45:59;21.50;53.70
74153;DHT22;62505;46.070;14.492;2023-02-28T00:48:27;21.60;53.70
74153;DHT22;62505;46.070;14.492;2023-02-28T00:50:54;21.60;53.70
74153;DHT22;62505;46.070;14.492;2023-02-28T00:53:21;21.50;53.70
74153;DHT22;62505;46.070;14.492;2023-02-28T00:55:49;21.50;53.70
74153;DHT22;62505;46.070;14.492;2023-02-28T00:58:16;21.60;53.70
74153;DHT22;62505;46.070;14.492;2023-02-28T01:00:43;21.50;53.70
74153;DHT22;62505;46.070;14.492;2023-02-28T01:03:15;21.50;53.70
74153;DHT22;62505;46.070;14.492;2023-02-28T01:05:44;21.50;53.70
74153;DHT22;62505;46.070;14.492;2023-02-28T01:08:11;21.50;53.70
74153;DHT22;62505;46.070;14.492;2023-02-28T01:10:38;21.50;53.80
74153;DHT22;62505;46.070;14.492;2023-02-28T01:13:06;21.50;53.70
74153;DHT22;62505;46.070;14.492;2023-02-28T01:15:32;21.50;53.70
74153;DHT22;62505;46.070;14.492;2023-02-28T01:17:59;21.50;53.80
74153;DHT22;62505;46.070;14.492;2023-02-28T01:20:27;21.50;53.70
74153;DHT22;62505;46.070;14.492;2023-02-28T01:22:55;21.50;53.70
74153;DHT22;62505;46.070;14.492;2023-02-28T01:25:22;21.50;53.80
74153;DHT22;62505;46.070;14.492;2023-02-28T01:27:49;21.50;53.80
74153;DHT22;62505;46.070;14.492;2023-02-28T01:30:16;21.50;53.80
74153;DHT22;62505;46.070;14.492;2023-02-28T01:32:43;21.50;53.70
74153;DHT22;62505;46.070;14.492;2023-02-28T01:35:10;21.50;53.70
74153;DHT22;62505;46.070;14.492;2023-02-28T01:37:38;21.50;53.70
74153;DHT22;62505;46.070;14.492;2023-02-28T01:40:08;21.50;53.80
74153;DHT22;62505;46.070;14.492;2023-02-28T01:42:35;21.50;53.80
74153;DHT22;62505;46.070;14.492;2023-02-28T01:45:14;21.50;53.80
74153;DHT22;62505;46.070;14.492;2023-02-28T01:47:43;21.50;53.70
74153;DHT22;62505;46.070;14.492;2023-02-28T01:50:16;21.50;53.80
74153;DHT22;62505;46.070;14.492;2023-02-28T01:52:45;21.50;53.80
74153;DHT22;62505;46.070;14.492;2023-02-28T01:55:15;21.50;53.80
74153;DHT22;62505;46.070;14.492;2023-02-28T01:57:46;21.50;53.80
74153;DHT22;62505;46.070;14.492;2023-02-28T02:00:17;21.50;53.80
74153;DHT22;62505;46.070;14.492;2023-02-28T02:02:47;21.50;53.70
74153;DHT22;62505;46.070;14.492;2023-02-28T02:05:18;21.50;53.80
74153;DHT22;62505;46.070;14.492;2023-02-28T02:07:47;21.50;53.80
74153;DHT22;62505;46.070;14.492;2023-02-28T02:10:18;21.50;53.80
74153;DHT22;62505;46.070;14.492;2023-02-28T02:13:08;21.50;53.80
74153;DHT22;62505;46.070;14.492;2023-02-28T02:15:42;21.50;53.70
74153;DHT22;62505;46.070;14.492;2023-02-28T02:18:23;21.50;53.80
74153;DHT22;62505;46.070;14.492;2023-02-28T02:30:21;21.40;53.80
74153;DHT22;62505;46.070;14.492;2023-02-28T02:33:11;21.50;53.80
74153;DHT22;62505;46.070;14.492;2023-02-28T02:35:51;21.40;53.80
74153;DHT22;62505;46.070;14.492;2023-02-28T02:38:25;21.40;53.80
74153;DHT22;62505;46.070;14.492;2023-02-28T02:41:02;21.40;53.80
74153;DHT22;62505;46.070;14.492;2023-02-28T02:43:35;21.40;53.80
74153;DHT22;62505;46.070;14.492;2023-02-28T02:46:06;21.40;53.80
74153;DHT22;62505;46.070;14.492;2023-02-28T02:48:37;21.40;53.90
74153;DHT22;62505;46.070;14.492;2023-02-28T02:51:09;21.40;53.80
74153;DHT22;62505;46.070;14.492;2023-02-28T02:53:42;21.40;53.90
74153;DHT22;62505;46.070;14.492;2023-02-28T02:56:12;21.40;53.90
74153;DHT22;62505;46.070;14.492;2023-02-28T02:58:41;21.40;53.70
74153;DHT22;62505;46.070;14.492;2023-02-28T03:01:14;21.40;53.90
74153;DHT22;62505;46.070;14.492;2023-02-28T03:03:41;21.40;53.90
74153;DHT22;62505;46.070;14.492;2023-02-28T03:06:10;21.40;53.90
74153;DHT22;62505;46.070;14.492;2023-02-28T03:08:38;21.40;53.80
74153;DHT22;62505;46.070;14.492;2023-02-28T03:11:09;21.40;53.80
74153;DHT22;62505;46.070;14.492;2023-02-28T03:14:01;21.40;53.90
74153;DHT22;62505;46.070;14.492;2023-02-28T03:16:35;21.40;53.80
74153;DHT22;62505;46.070;14.492;2023-02-28T03:19:14;21.40;53.90
74153;DHT22;62505;46.070;14.492;2023-02-28T03:21:54;21.40;53.90
74153;DHT22;62505;46.070;14.492;2023-02-28T03:24:27;21.40;53.90
74153;DHT22;62505;46.070;14.492;2023-02-28T03:27:02;21.40;53.90
74153;DHT22;62505;46.070;14.492;2023-02-28T03:29:34;21.40;53.90
74153;DHT22;62505;46.070;14.492;2023-02-28T03:32:05;21.40;53.90
74153;DHT22;62505;46.070;14.492;2023-02-28T03:34:38;21.40;53.90
74153;DHT22;62505;46.070;14.492;2023-02-28T03:37:11;21.40;54.60
74153;DHT22;62505;46.070;14.492;2023-02-28T03:39:42;21.40;53.90
74153;DHT22;62505;46.070;14.492;2023-02-28T03:42:14;21.40;53.90
74153;DHT22;62505;46.070;14.492;2023-02-28T03:44:44;21.40;54.00
74153;DHT22;62505;46.070;14.492;2023-02-28T03:47:16;21.40;53.90
74153;DHT22;62505;46.070;14.492;2023-02-28T03:49:48;21.40;54.00
74153;DHT22;62505;46.070;14.492;2023-02-28T03:52:18;21.40;54.00
74153;DHT22;62505;46.070;14.492;2023-02-28T03:54:50;21.40;54.00
74153;DHT22;62505;46.070;14.492;2023-02-28T03:57:22;21.40;54.00
74153;DHT22;62505;46.070;14.492;2023-02-28T03:59:56;21.40;54.00
74153;DHT22;62505;46.070;14.492;2023-02-28T04:02:24;21.40;54.00
74153;DHT22;62505;46.070;14.492;2023-02-28T04:04:51;21.40;54.00
74153;DHT22;62505;46.070;14.492;2023-02-28T04:07:19;21.40;54.00
74153;DHT22;62505;46.070;14.492;2023-02-28T04:09:46;21.40;54.00
74153;DHT22;62505;46.070;14.492;2023-02-28T04:12:13;21.30;54.00
74153;DHT22;62505;46.070;14.492;2023-02-28T04:14:40;21.30;54.00
74153;DHT22;62505;46.070;14.492;2023-02-28T04:17:07;21.40;54.00
74153;DHT22;62505;46.070;14.492;2023-02-28T04:19:34;21.40;54.00
74153;DHT22;62505;46.070;14.492;2023-02-28T04:22:01;21.30;54.00
74153;DHT22;62505;46.070;14.492;2023-02-28T04:24:30;21.40;54.00
74153;DHT22;62505;46.070;14.492;2023-02-28T04:26:57;21.30;54.00
74153;DHT22;62505;46.070;14.492;2023-02-28T04:29:26;21.40;54.00
74153;DHT22;62505;46.070;14.492;2023-02-28T04:31:54;21.30;54.00
74153;DHT22;62505;46.070;14.492;2023-02-28T04:34:23;21.30;54.00
74153;DHT22;62505;46.070;14.492;2023-02-28T04:36:51;21.30;54.00
74153;DHT22;62505;46.070;14.492;2023-02-28T04:39:20;21.30;54.00
74153;DHT22;62505;46.070;14.492;2023-02-28T04:41:49;21.30;54.00
74153;DHT22;62505;46.070;14.492;2023-02-28T04:44:16;21.30;54.60
74153;DHT22;62505;46.070;14.492;2023-02-28T04:46:44;21.30;54.00
74153;DHT22;62505;46.070;14.492;2023-02-28T04:49:11;21.30;54.10
74153;DHT22;62505;46.070;14.492;2023-02-28T04:51:38;21.30;54.00
74153;DHT22;62505;46.070;14.492;2023-02-28T04:54:06;21.30;54.00
74153;DHT22;62505;46.070;14.492;2023-02-28T04:56:33;21.30;54.10
74153;DHT22;62505;46.070;14.492;2023-02-28T04:59:01;21.30;54.00
74153;DHT22;62505;46.070;14.492;2023-02-28T05:01:30;21.30;54.00
74153;DHT22;62505;46.070;14.492;2023-02-28T05:03:59;21.30;54.10
74153;DHT22;62505;46.070;14.492;2023-02-28T05:06:28;21.30;54.10
74153;DHT22;62505;46.070;14.492;2023-02-28T05:08:56;21.30;54.10
74153;DHT22;62505;46.070;14.492;2023-02-28T05:11:25;21.30;54.10
74153;DHT22;62505;46.070;14.492;2023-02-28T05:13:54;21.30;54.10
74153;DHT22;62505;46.070;14.492;2023-02-28T05:16:23;21.30;54.30
74153;DHT22;62505;46.070;14.492;2023-02-28T05:18:50;21.30;54.40
74153;DHT22;62505;46.070;14.492;2023-02-28T05:21:29;21.30;54.30
74153;DHT22;62505;46.070;14.492;2023-02-28T05:23:58;21.30;54.30
74153;DHT22;62505;46.070;14.492;2023-02-28T05:26:26;21.30;54.50
74153;DHT22;62505;46.070;14.492;2023-02-28T05:28:53;21.40;54.50
74153;DHT22;62505;46.070;14.492;2023-02-28T05:31:20;21.30;54.60
74153;DHT22;62505;46.070;14.492;2023-02-28T05:33:49;21.40;54.60
74153;DHT22;62505;46.070;14.492;2023-02-28T05:36:16;21.40;54.60
74153;DHT22;62505;46.070;14.492;2023-02-28T05:38:42;21.40;54.60
74153;DHT22;62505;46.070;14.492;2023-02-28T05:41:10;21.40;54.60
74153;DHT22;62505;46.070;14.492;2023-02-28T05:43:38;21.40;54.80
74153;DHT22;62505;46.070;14.492;2023-02-28T05:46:06;21.40;54.80
74153;DHT22;62505;46.070;14.492;2023-02-28T05:48:34;21.40;54.90
74153;DHT22;62505;46.070;14.492;2023-02-28T05:51:03;21.40;54.90
74153;DHT22;62505;46.070;14.492;2023-02-28T05:53:31;21.40;54.90
74153;DHT22;62505;46.070;14.492;2023-02-28T05:55:58;21.40;55.40
74153;DHT22;62505;46.070;14.492;2023-02-28T05:58:25;21.50;55.80
74153;DHT22;62505;46.070;14.492;2023-02-28T06:00:56;21.50;55.40
74153;DHT22;62505;46.070;14.492;2023-02-28T06:03:23;21.50;55.30
74153;DHT22;62505;46.070;14.492;2023-02-28T06:05:50;21.60;55.20
74153;DHT22;62505;46.070;14.492;2023-02-28T06:08:18;21.50;55.30
74153;DHT22;62505;46.070;14.492;2023-02-28T06:10:45;21.60;56.10
74153;DHT22;62505;46.070;14.492;2023-02-28T06:13:12;21.60;55.50
74153;DHT22;62505;46.070;14.492;2023-02-28T06:15:39;21.50;55.20
74153;DHT22;62505;46.070;14.492;2023-02-28T06:18:07;21.50;55.30
74153;DHT22;62505;46.070;14.492;2023-02-28T06:20:34;21.50;55.40
74153;DHT22;62505;46.070;14.492;2023-02-28T06:23:01;21.50;55.50
74153;DHT22;62505;46.070;14.492;2023-02-28T06:25:30;21.40;55.50
74153;DHT22;62505;46.070;14.492;2023-02-28T06:27:57;21.40;55.40
74153;DHT22;62505;46.070;14.492;2023-02-28T06:30:24;21.40;55.40
74153;DHT22;62505;46.070;14.492;2023-02-28T06:32:55;21.40;55.90
74153;DHT22;62505;46.070;14.492;2023-02-28T06:35:22;21.40;55.20
74153;DHT22;62505;46.070;14.492;2023-02-28T06:37:49;21.40;55.20
74153;DHT22;62505;46.070;14.492;2023-02-28T06:40:16;21.40;55.10
74153;DHT22;62505;46.070;14.492;2023-02-28T06:42:45;21.40;55.00
74153;DHT22;62505;46.070;14.492;2023-02-28T06:45:12;21.40;55.10
74153;DHT22;62505;46.070;14.492;2023-02-28T06:47:40;21.40;55.00
74153;DHT22;62505;46.070;14.492;2023-02-28T06:50:09;21.40;54.90
74153;DHT22;62505;46.070;14.492;2023-02-28T06:52:37;21.40;55.00
74153;DHT22;62505;46.070;14.492;2023-02-28T06:55:06;21.40;54.90
74153;DHT22;62505;46.070;14.492;2023-02-28T06:57:35;21.40;54.90
74153;DHT22;62505;46.070;14.492;2023-02-28T07:00:06;21.30;54.90
74153;DHT22;62505;46.070;14.492;2023-02-28T07:02:34;21.30;54.80
74153;DHT22;62505;46.070;14.492;2023-02-28T07:05:01;21.30;54.80
74153;DHT22;62505;46.070;14.492;2023-02-28T07:07:28;21.30;54.70
74153;DHT22;62505;46.070;14.492;2023-02-28T07:09:55;21.30;54.70
74153;DHT22;62505;46.070;14.492;2023-02-28T07:12:22;21.30;54.70
74153;DHT22;62505;46.070;14.492;2023-02-28T07:14:49;21.30;54.60
74153;DHT22;62505;46.070;14.492;2023-02-28T07:17:17;21.30;54.60
74153;DHT22;62505;46.070;14.492;2023-02-28T07:19:44;21.30;54.60
74153;DHT22;62505;46.070;14.492;2023-02-28T07:22:11;21.30;54.60
74153;DHT22;62505;46.070;14.492;2023-02-28T07:24:38;21.30;54.50
74153;DHT22;62505;46.070;14.492;2023-02-28T07:27:05;21.30;54.50
74153;DHT22;62505;46.070;14.492;2023-02-28T07:29:32;21.30;54.50
74153;DHT22;62505;46.070;14.492;2023-02-28T07:31:59;21.30;54.40
74153;DHT22;62505;46.070;14.492;2023-02-28T07:34:28;21.30;54.30
74153;DHT22;62505;46.070;14.492;2023-02-28T07:36:55;21.30;54.30
74153;DHT22;62505;46.070;14.492;2023-02-28T07:39:22;21.30;54.30
74153;DHT22;62505;46.070;14.492;2023-02-28T07:41:49;21.30;54.40
74153;DHT22;62505;46.070;14.492;2023-02-28T07:44:16;21.30;54.40
74153;DHT22;62505;46.070;14.492;2023-02-28T07:46:43;21.30;54.40
74153;DHT22;62505;46.070;14.492;2023-02-28T07:49:10;21.30;54.30
74153;DHT22;62505;46.070;14.492;2023-02-28T07:51:39;21.30;54.30
74153;DHT22;62505;46.070;14.492;2023-02-28T07:54:06;21.30;54.40
74153;DHT22;62505;46.070;14.492;2023-02-28T07:56:33;21.30;54.30
74153;DHT22;62505;46.070;14.492;2023-02-28T07:59:00;21.30;54.30
74153;DHT22;62505;46.070;14.492;2023-02-28T08:01:27;21.30;54.30
74153;DHT22;62505;46.070;14.492;2023-02-28T08:03:54;21.30;54.30
74153;DHT22;62505;46.070;14.492;2023-02-28T08:06:24;21.30;54.30
74153;DHT22;62505;46.070;14.492;2023-02-28T08:08:53;21.30;54.30
74153;DHT22;62505;46.070;14.492;2023-02-28T08:11:21;21.30;54.30
74153;DHT22;62505;46.070;14.492;2023-02-28T08:13:48;21.30;54.30
74153;DHT22;62505;46.070;14.492;2023-02-28T08:16:16;21.30;54.00
74153;DHT22;62505;46.070;14.492;2023-02-28T08:18:47;21.30;54.20
74153;DHT22;62505;46.070;14.492;2023-02-28T08:21:14;21.30;54.00
74153;DHT22;62505;46.070;14.492;2023-02-28T08:23:41;21.30;54.10
74153;DHT22;62505;46.070;14.492;2023-02-28T08:26:10;21.30;54.10
74153;DHT22;62505;46.070;14.492;2023-02-28T08:28:37;21.30;54.10
74153;DHT22;62505;46.070;14.492;2023-02-28T08:31:08;21.30;54.10
74153;DHT22;62505;46.070;14.492;2023-02-28T08:33:35;21.30;54.10
74153;DHT22;62505;46.070;14.492;2023-02-28T08:36:03;21.30;54.00
74153;DHT22;62505;46.070;14.492;2023-02-28T08:38:30;21.30;54.00
74153;DHT22;62505;46.070;14.492;2023-02-28T08:40:58;21.30;54.00
74153;DHT22;62505;46.070;14.492;2023-02-28T08:43:27;21.30;53.90
74153;DHT22;62505;46.070;14.492;2023-02-28T08:45:55;21.30;54.00
74153;DHT22;62505;46.070;14.492;2023-02-28T08:48:22;21.20;53.90
74153;DHT22;62505;46.070;14.492;2023-02-28T08:50:55;21.20;53.80
74153;DHT22;62505;46.070;14.492;2023-02-28T08:53:23;21.30;54.00
74153;DHT22;62505;46.070;14.492;2023-02-28T08:55:56;21.20;53.80
74153;DHT22;62505;46.070;14.492;2023-02-28T08:58:23;21.30;53.90
74153;DHT22;62505;46.070;14.492;2023-02-28T09:00:52;21.30;53.90
74153;DHT22;62505;46.070;14.492;2023-02-28T09:03:19;21.20;53.80
74153;DHT22;62505;46.070;14.492;2023-02-28T09:05:54;21.30;54.00
74153;DHT22;62505;46.070;14.492;2023-02-28T09:08:22;21.20;53.80
74153;DHT22;62505;46.070;14.492;2023-02-28T09:10:49;21.20;53.80
74153;DHT22;62505;46.070;14.492;2023-02-28T09:13:16;21.20;53.90
74153;DHT22;62505;46.070;14.492;2023-02-28T09:15:43;21.20;53.80
74153;DHT22;62505;46.070;14.492;2023-02-28T09:18:12;21.20;53.70
74153;DHT22;62505;46.070;14.492;2023-02-28T09:20:40;21.20;53.70
74153;DHT22;62505;46.070;14.492;2023-02-28T09:23:07;21.20;53.70
74153;DHT22;62505;46.070;14.492;2023-02-28T09:25:35;21.20;53.70
74153;DHT22;62505;46.070;14.492;2023-02-28T09:28:02;21.20;54.30
74153;DHT22;62505;46.070;14.492;2023-02-28T09:30:30;21.20;53.70
74153;DHT22;62505;46.070;14.492;2023-02-28T09:32:57;21.20;53.80
74153;DHT22;62505;46.070;14.492;2023-02-28T09:35:25;21.20;53.80
74153;DHT22;62505;46.070;14.492;2023-02-28T09:37:53;21.30;53.90
74153;DHT22;62505;46.070;14.492;2023-02-28T09:40:22;21.20;53.80
74153;DHT22;62505;46.070;14.492;2023-02-28T09:42:52;21.30;53.80
74153;DHT22;62505;46.070;14.492;2023-02-28T09:45:27;21.30;53.70
74153;DHT22;62505;46.070;14.492;2023-02-28T09:47:58;21.30;53.70
74153;DHT22;62505;46.070;14.492;2023-02-28T09:50:34;21.20;46.70
74153;DHT22;62505;46.070;14.492;2023-02-28T09:53:05;21.00;45.50
74153;DHT22;62505;46.070;14.492;2023-02-28T09:55:39;21.10;47.60
74153;DHT22;62505;46.070;14.492;2023-02-28T09:58:15;21.30;47.00
74153;DHT22;62505;46.070;14.492;2023-02-28T10:00:44;21.60;46.80
74153;DHT22;62505;46.070;14.492;2023-02-28T10:03:25;21.80;46.70
74153;DHT22;62505;46.070;14.492;2023-02-28T10:06:00;21.90;46.70
74153;DHT22;62505;46.070;14.492;2023-02-28T10:08:33;22.10;46.90
74153;DHT22;62505;46.070;14.492;2023-02-28T10:11:10;22.20;47.10
74153;DHT22;62505;46.070;14.492;2023-02-28T10:13:48;22.30;47.10
74153;DHT22;62505;46.070;14.492;2023-02-28T10:16:22;22.40;47.40
74153;DHT22;62505;46.070;14.492;2023-02-28T10:18:54;22.40;47.60
74153;DHT22;62505;46.070;14.492;2023-02-28T10:21:27;22.50;47.70
74153;DHT22;62505;46.070;14.492;2023-02-28T10:24:02;22.50;47.80
74153;DHT22;62505;46.070;14.492;2023-02-28T10:26:31;22.60;48.00
74153;DHT22;62505;46.070;14.492;2023-02-28T10:28:59;22.60;48.10
74153;DHT22;62505;46.070;14.492;2023-02-28T10:31:26;22.60;48.60
74153;DHT22;62505;46.070;14.492;2023-02-28T10:33:53;22.60;48.80
74153;DHT22;62505;46.070;14.492;2023-02-28T10:36:21;22.70;48.90
74153;DHT22;62505;46.070;14.492;2023-02-28T10:38:50;22.70;48.90
74153;DHT22;62505;46.070;14.492;2023-02-28T10:41:27;22.70;49.00
74153;DHT22;62505;46.070;14.492;2023-02-28T10:44:13;22.70;49.20
74153;DHT22;62505;46.070;14.492;2023-02-28T10:46:41;22.70;49.40
74153;DHT22;62505;46.070;14.492;2023-02-28T10:49:14;22.60;49.60
74153;DHT22;62505;46.070;14.492;2023-02-28T10:51:42;22.60;49.90
74153;DHT22;62505;46.070;14.492;2023-02-28T10:54:19;22.50;50.20
74153;DHT22;62505;46.070;14.492;2023-02-28T10:57:06;22.40;50.30
74153;DHT22;62505;46.070;14.492;2023-02-28T10:59:34;22.50;50.60
74153;DHT22;62505;46.070;14.492;2023-02-28T11:02:01;22.40;50.80
74153;DHT22;62505;46.070;14.492;2023-02-28T11:04:34;22.40;51.00
74153;DHT22;62505;46.070;14.492;2023-02-28T11:07:06;22.30;51.10
74153;DHT22;62505;46.070;14.492;2023-02-28T11:09:36;22.30;51.30
74153;DHT22;62505;46.070;14.492;2023-02-28T11:12:07;22.30;51.40
74153;DHT22;62505;46.070;14.492;2023-02-28T11:14:46;22.40;51.50
74153;DHT22;62505;46.070;14.492;2023-02-28T11:17:18;22.40;51.40
74153;DHT22;62505;46.070;14.492;2023-02-28T11:19:47;22.50;51.30
74153;DHT22;62505;46.070;14.492;2023-02-28T11:22:19;22.50;51.10
74153;DHT22;62505;46.070;14.492;2023-02-28T11:24:51;22.60;51.10
74153;DHT22;62505;46.070;14.492;2023-02-28T11:27:42;22.70;51.10
74153;DHT22;62505;46.070;14.492;2023-02-28T11:30:27;22.70;51.10
74153;DHT22;62505;46.070;14.492;2023-02-28T11:32:55;22.60;51.20
74153;DHT22;62505;46.070;14.492;2023-02-28T11:35:26;22.70;51.40
74153;DHT22;62505;46.070;14.492;2023-02-28T11:37:54;22.70;51.50
74153;DHT22;62505;46.070;14.492;2023-02-28T11:40:30;22.60;51.60
74153;DHT22;62505;46.070;14.492;2023-02-28T11:43:07;22.50;51.80
74153;DHT22;62505;46.070;14.492;2023-02-28T11:45:45;22.50;52.00
74153;DHT22;62505;46.070;14.492;2023-02-28T11:48:20;22.40;52.00
74153;DHT22;62505;46.070;14.492;2023-02-28T11:51:03;22.40;52.00
74153;DHT22;62505;46.070;14.492;2023-02-28T11:53:50;22.30;52.10
74153;DHT22;62505;46.070;14.492;2023-02-28T11:56:26;22.30;52.30
74153;DHT22;62505;46.070;14.492;2023-02-28T11:59:04;22.30;52.40
74153;DHT22;62505;46.070;14.492;2023-02-28T12:01:43;22.40;52.50
74153;DHT22;62505;46.070;14.492;2023-02-28T12:04:21;22.40;52.50
74153;DHT22;62505;46.070;14.492;2023-02-28T12:06:55;22.50;52.50
74153;DHT22;62505;46.070;14.492;2023-02-28T12:09:39;22.50;52.30
74153;DHT22;62505;46.070;14.492;2023-02-28T12:12:20;22.60;52.20
74153;DHT22;62505;46.070;14.492;2023-02-28T12:15:05;22.70;52.10
74153;DHT22;62505;46.070;14.492;2023-02-28T12:17:50;22.70;52.10
74153;DHT22;62505;46.070;14.492;2023-02-28T12:20:27;22.70;52.10
74153;DHT22;62505;46.070;14.492;2023-02-28T12:23:19;22.70;52.20
74153;DHT22;62505;46.070;14.492;2023-02-28T12:28:41;22.70;52.50
74153;DHT22;62505;46.070;14.492;2023-02-28T12:31:12;22.70;52.80
74153;DHT22;62505;46.070;14.492;2023-02-28T12:33:45;22.60;52.80
74153;DHT22;62505;46.070;14.492;2023-02-28T12:36:15;22.60;52.90
74153;DHT22;62505;46.070;14.492;2023-02-28T12:38:46;22.60;53.10
74153;DHT22;62505;46.070;14.492;2023-02-28T12:41:16;22.60;53.00
74153;DHT22;62505;46.070;14.492;2023-02-28T12:43:50;22.50;53.20
74153;DHT22;62505;46.070;14.492;2023-02-28T12:46:23;22.50;53.40
74153;DHT22;62505;46.070;14.492;2023-02-28T12:48:53;22.40;53.50
74153;DHT22;62505;46.070;14.492;2023-02-28T12:51:22;22.50;53.90
74153;DHT22;62505;46.070;14.492;2023-02-28T12:54:02;22.50;54.10
74153;DHT22;62505;46.070;14.492;2023-02-28T12:56:38;22.40;54.00
74153;DHT22;62505;46.070;14.492;2023-02-28T12:59:16;22.40;54.30
74153;DHT22;62505;46.070;14.492;2023-02-28T13:02:00;22.40;54.60
74153;DHT22;62505;46.070;14.492;2023-02-28T13:04:45;22.40;54.60
74153;DHT22;62505;46.070;14.492;2023-02-28T13:10:10;22.30;54.70
74153;DHT22;62505;46.070;14.492;2023-02-28T13:12:47;22.40;55.20
74153;DHT22;62505;46.070;14.492;2023-02-28T13:15:19;22.40;57.50
74153;DHT22;62505;46.070;14.492;2023-02-28T13:17:51;22.30;56.20
74153;DHT22;62505;46.070;14.492;2023-02-28T13:20:20;22.30;56.00
74153;DHT22;62505;46.070;14.492;2023-02-28T13:22:51;22.30;55.80
74153;DHT22;62505;46.070;14.492;2023-02-28T13:34:41;22.30;56.20
74153;DHT22;62505;46.070;14.492;2023-02-28T13:37:32;22.30;56.50
74153;DHT22;62505;46.070;14.492;2023-02-28T13:40:22;22.30;56.30
74153;DHT22;62505;46.070;14.492;2023-02-28T13:42:53;22.20;56.20
74153;DHT22;62505;46.070;14.492;2023-02-28T13:45:22;22.20;56.40
74153;DHT22;62505;46.070;14.492;2023-02-28T13:47:53;22.30;56.40
74153;DHT22;62505;46.070;14.492;2023-02-28T13:50:26;22.30;56.50
74153;DHT22;62505;46.070;14.492;2023-02-28T13:53:13;22.30;56.20
74153;DHT22;62505;46.070;14.492;2023-02-28T13:55:46;22.20;55.80
74153;DHT22;62505;46.070;14.492;2023-02-28T13:58:31;22.20;54.90
74153;DHT22;62505;46.070;14.492;2023-02-28T14:01:21;22.10;54.40
74153;DHT22;62505;46.070;14.492;2023-02-28T14:06:57;22.10;54.30
74153;DHT22;62505;46.070;14.492;2023-02-28T14:09:28;22.10;54.00
74153;DHT22;62505;46.070;14.492;2023-02-28T14:11:56;22.00;53.90
74153;DHT22;62505;46.070;14.492;2023-02-28T14:14:56;22.00;53.70
74153;DHT22;62505;46.070;14.492;2023-02-28T14:17:24;22.00;53.40
74153;DHT22;62505;46.070;14.492;2023-02-28T14:19:52;22.00;53.30
74153;DHT22;62505;46.070;14.492;2023-02-28T14:22:43;22.00;53.20
74153;DHT22;62505;46.070;14.492;2023-02-28T14:25:20;22.00;52.60
74153;DHT22;62505;46.070;14.492;2023-02-28T14:27:49;21.90;52.60
74153;DHT22;62505;46.070;14.492;2023-02-28T14:30:57;21.90;52.40
74153;DHT22;62505;46.070;14.492;2023-02-28T14:33:35;21.90;52.10
74153;DHT22;62505;46.070;14.492;2023-02-28T14:36:14;21.90;52.70
74153;DHT22;62505;46.070;14.492;2023-02-28T14:38:46;21.90;52.30
74153;DHT22;62505;46.070;14.492;2023-02-28T14:41:21;21.90;52.50
74153;DHT22;62505;46.070;14.492;2023-02-28T14:43:53;21.90;52.40
74153;DHT22;62505;46.070;14.492;2023-02-28T14:46:21;21.90;52.40
74153;DHT22;62505;46.070;14.492;2023-02-28T14:48:50;21.90;52.40
74153;DHT22;62505;46.070;14.492;2023-02-28T14:51:21;21.90;52.30
74153;DHT22;62505;46.070;14.492;2023-02-28T14:53:56;21.90;52.00
74153;DHT22;62505;46.070;14.492;2023-02-28T14:56:27;21.80;52.00
74153;DHT22;62505;46.070;14.492;2023-02-28T14:58:56;21.80;52.10
74153;DHT22;62505;46.070;14.492;2023-02-28T15:01:25;21.80;52.00
74153;DHT22;62505;46.070;14.492;2023-02-28T15:04:00;21.80;51.70
74153;DHT22;62505;46.070;14.492;2023-02-28T15:06:28;21.80;51.90
74153;DHT22;62505;46.070;14.492;2023-02-28T15:09:15;21.80;52.00
74153;DHT22;62505;46.070;14.492;2023-02-28T15:11:47;21.80;51.40
74153;DHT22;62505;46.070;14.492;2023-02-28T15:14:19;21.80;51.30
74153;DHT22;62505;46.070;14.492;2023-02-28T15:16:51;21.90;51.60
74153;DHT22;62505;46.070;14.492;2023-02-28T15:19:22;21.90;51.80
74153;DHT22;62505;46.070;14.492;2023-02-28T15:21:53;21.90;52.20
74153;DHT22;62505;46.070;14.492;2023-02-28T15:24:30;21.90;52.80
74153;DHT22;62505;46.070;14.492;2023-02-28T15:27:00;21.90;53.00
74153;DHT22;62505;46.070;14.492;2023-02-28T15:29:33;21.90;53.10
74153;DHT22;62505;46.070;14.492;2023-02-28T15:32:03;21.90;53.20
74153;DHT22;62505;46.070;14.492;2023-02-28T15:34:35;21.90;52.90
74153;DHT22;62505;46.070;14.492;2023-02-28T15:37:06;21.90;52.60
74153;DHT22;62505;46.070;14.492;2023-02-28T15:39:42;21.90;53.00
74153;DHT22;62505;46.070;14.492;2023-02-28T15:42:11;21.80;53.00
74153;DHT22;62505;46.070;14.492;2023-02-28T15:44:38;21.80;52.90
74153;DHT22;62505;46.070;14.492;2023-02-28T15:47:11;21.80;52.90
74153;DHT22;62505;46.070;14.492;2023-02-28T15:49:49;21.80;53.10
74153;DHT22;62505;46.070;14.492;2023-02-28T15:52:18;21.80;52.90
74153;DHT22;62505;46.070;14.492;2023-02-28T15:54:47;21.80;53.00
74153;DHT22;62505;46.070;14.492;2023-02-28T15:57:18;21.80;52.90
74153;DHT22;62505;46.070;14.492;2023-02-28T15:59:51;21.80;53.00
74153;DHT22;62505;46.070;14.492;2023-02-28T16:02:20;21.80;53.00
74153;DHT22;62505;46.070;14.492;2023-02-28T16:04:58;21.80;52.90
74153;DHT22;62505;46.070;14.492;2023-02-28T16:07:26;21.80;52.90